createdAt,value
2023-04-23T00:00:46.450Z,84.47
2023-04-23T00:02:48.753Z,84.28
2023-04-23T00:03:49.436Z,84.28
2023-04-23T00:04:50.090Z,84.09
2023-04-23T00:05:50.289Z,84.56
2023-04-23T00:06:50.798Z,84.66
2023-04-23T00:07:51.546Z,84.66
2023-04-23T00:08:52.636Z,84.56
2023-04-23T00:09:53.110Z,84.85
2023-04-23T00:10:54.217Z,84.76
2023-04-23T00:11:54.505Z,84.76
2023-04-23T00:12:55.793Z,84.56
2023-04-23T00:13:55.748Z,84.66
2023-04-23T00:14:56.715Z,84.28
2023-04-23T00:15:57.477Z,84.85
2023-04-23T00:16:58.175Z,84.85
2023-04-23T00:17:58.134Z,84.95
2023-04-23T00:18:58.736Z,85.05
2023-04-23T00:19:59.260Z,84.76
2023-04-23T00:20:59.567Z,85.05
2023-04-23T00:22:00.418Z,84.66
2023-04-23T00:23:00.357Z,85.24
2023-04-23T00:24:01.064Z,84.76
2023-04-23T00:25:02.361Z,85.24
2023-04-23T00:26:02.872Z,85.24
2023-04-23T00:27:03.779Z,85.62
2023-04-23T00:28:04.520Z,85.71
2023-04-23T00:29:04.772Z,85.52
2023-04-23T00:30:05.492Z,85.62
2023-04-23T00:31:06.179Z,86.57
2023-04-23T00:32:06.791Z,85.81
2023-04-23T00:33:06.918Z,86
2023-04-23T00:34:07.881Z,85.58
2023-04-23T00:35:08.586Z,85.86
2023-04-23T00:36:08.896Z,85.77
2023-04-23T00:37:09.589Z,85.77
2023-04-23T00:38:09.890Z,86.24
2023-04-23T00:39:10.655Z,86.34
2023-04-23T00:40:11.150Z,86.05
2023-04-23T00:41:11.453Z,86.24
2023-04-23T00:42:11.856Z,86.91
2023-04-23T00:43:12.358Z,87.01
2023-04-23T00:44:13.273Z,87.1
2023-04-23T00:45:14.007Z,86.91
2023-04-23T00:46:14.594Z,87.1
2023-04-23T00:47:15.603Z,87.1
2023-04-23T00:48:16.389Z,87.01
2023-04-23T00:49:16.944Z,86.82
2023-04-23T00:50:17.689Z,87.01
2023-04-23T00:51:18.410Z,87.82
2023-04-23T00:52:19.020Z,88.34
2023-04-23T00:53:19.550Z,87.87
2023-04-23T00:54:20.049Z,87.82
2023-04-23T00:55:20.533Z,88.01
2023-04-23T00:56:21.031Z,88.3
2023-04-23T00:57:21.743Z,87.63
2023-04-23T00:58:22.481Z,88.49
2023-04-23T00:59:23.414Z,88.11
2023-04-23T01:00:23.689Z,87.92
2023-04-23T01:01:24.450Z,88.11
2023-04-23T01:02:25.797Z,87.82
2023-04-23T01:03:26.219Z,87.44
2023-04-23T01:04:26.584Z,87.63
2023-04-23T01:05:27.434Z,87.82
2023-04-23T01:06:27.927Z,87.63
2023-04-23T01:07:28.858Z,88.2
2023-04-23T01:08:28.992Z,88.78
2023-04-23T01:09:29.901Z,88.59
2023-04-23T01:10:30.601Z,88.78
2023-04-23T01:11:31.077Z,89.35
2023-04-23T01:12:31.560Z,88.68
2023-04-23T01:13:32.290Z,89.54
2023-04-23T01:14:33.234Z,89.25
2023-04-23T01:15:34.259Z,89.92
2023-04-23T01:16:35.099Z,90.11
2023-04-23T01:17:35.737Z,89.83
2023-04-23T01:18:36.400Z,90.4
2023-04-23T01:19:37.327Z,90.4
2023-04-23T01:20:38.064Z,90.97
2023-04-23T01:21:38.575Z,90.5
2023-04-23T01:22:39.193Z,90.21
2023-04-23T01:23:39.918Z,90.4
2023-04-23T01:24:40.361Z,90.31
2023-04-23T01:25:40.163Z,90.4
2023-04-23T01:26:40.867Z,90.21
2023-04-23T01:27:41.741Z,90.11
2023-04-23T01:28:42.455Z,89.92
2023-04-23T01:29:43.506Z,89.92
2023-04-23T01:30:44.288Z,89.83
2023-04-23T01:31:44.457Z,90.02
2023-04-23T01:32:45.456Z,89.92
2023-04-23T01:33:46.329Z,89.64
2023-04-23T01:34:47.295Z,89.35
2023-04-23T01:35:47.228Z,89.64
2023-04-23T01:36:47.725Z,90.59
2023-04-23T01:37:47.627Z,90.4
2023-04-23T01:38:48.331Z,90.59
2023-04-23T01:39:49.042Z,90.4
2023-04-23T01:40:49.582Z,90.21
2023-04-23T01:41:50.055Z,90.4
2023-04-23T01:42:50.606Z,90.4
2023-04-23T01:43:50.826Z,90.21
2023-04-23T01:44:51.551Z,90.4
2023-04-23T01:45:51.874Z,90.88
2023-04-23T01:46:52.805Z,90.88
2023-04-23T01:47:53.548Z,90.69
2023-04-23T01:48:54.783Z,90.88
2023-04-23T01:49:54.926Z,90.88
2023-04-23T01:50:55.675Z,90.69
2023-04-23T01:51:56.771Z,90.88
2023-04-23T01:52:57.013Z,91.16
2023-04-23T01:53:57.568Z,91.26
2023-04-23T01:54:58.329Z,91.26
2023-04-23T01:55:59.089Z,90.69
2023-04-23T01:56:59.749Z,90.97
2023-04-23T01:58:00.686Z,91.07
2023-04-23T01:59:01.016Z,90.78
2023-04-23T02:00:01.924Z,91.45
2023-04-23T02:01:02.821Z,90.97
2023-04-23T02:02:03.186Z,90.78
2023-04-23T02:03:03.582Z,90.88
2023-04-23T02:04:04.122Z,91.16
2023-04-23T02:05:04.018Z,91.36
2023-04-23T02:06:04.518Z,91.26
2023-04-23T02:07:05.226Z,91.36
2023-04-23T02:08:05.762Z,91.45
2023-04-23T02:09:06.296Z,90.69
2023-04-23T02:10:07.471Z,90.78
2023-04-23T02:11:08.410Z,90.88
2023-04-23T02:12:08.513Z,91.07
2023-04-23T02:13:08.780Z,90.69
2023-04-23T02:14:09.518Z,90.4
2023-04-23T02:15:10.261Z,90.4
2023-04-23T02:16:10.853Z,89.92
2023-04-23T02:17:11.668Z,89.83
2023-04-23T02:18:11.803Z,89.92
2023-04-23T02:19:14.670Z,89.92
2023-04-23T02:20:13.807Z,90.02
2023-04-23T02:21:14.745Z,89.45
2023-04-23T02:22:15.057Z,89.83
2023-04-23T02:23:15.434Z,89.92
2023-04-23T02:24:16.184Z,89.92
2023-04-23T02:25:16.896Z,90.31
2023-04-23T02:26:17.823Z,90.31
2023-04-23T02:27:18.537Z,90.31
2023-04-23T02:28:18.638Z,89.83
2023-04-23T02:29:19.173Z,90.02
2023-04-23T02:30:19.900Z,90.11
2023-04-23T02:31:20.448Z,90.02
2023-04-23T02:32:20.918Z,90.11
2023-04-23T02:33:21.495Z,90.59
2023-04-23T02:34:21.399Z,90.5
2023-04-23T02:35:21.973Z,90.21
2023-04-23T02:36:22.704Z,90.78
2023-04-23T02:37:23.450Z,90.88
2023-04-23T02:38:23.965Z,90.11
2023-04-23T02:39:24.480Z,90.4
2023-04-23T02:40:24.995Z,90.69
2023-04-23T02:41:25.517Z,90.31
2023-04-23T02:42:26.308Z,89.92
2023-04-23T02:43:26.680Z,89.92
2023-04-23T02:44:27.419Z,90.11
2023-04-23T02:45:28.427Z,89.54
2023-04-23T02:46:29.004Z,89.64
2023-04-23T02:47:28.968Z,89.16
2023-04-23T02:48:29.398Z,89.92
2023-04-23T02:49:29.892Z,89.25
2023-04-23T02:50:30.648Z,89.73
2023-04-23T02:51:31.583Z,89.83
2023-04-23T02:52:32.273Z,89.92
2023-04-23T02:53:32.904Z,89.64
2023-04-23T02:54:33.228Z,90.02
2023-04-23T02:55:34.479Z,90.02
2023-04-23T02:56:34.789Z,89.83
2023-04-23T02:57:35.267Z,89.92
2023-04-23T02:58:35.198Z,90.4
2023-04-23T02:59:35.953Z,90.31
2023-04-23T03:00:36.923Z,90.88
2023-04-23T03:01:37.667Z,91.36
2023-04-23T03:02:38.607Z,91.64
2023-04-23T03:03:39.617Z,92.31
2023-04-23T03:04:39.949Z,92.79
2023-04-23T03:05:40.448Z,93.02
2023-04-23T03:06:41.297Z,93.7
2023-04-23T03:07:42.047Z,94.07
2023-04-23T03:08:42.558Z,95.12
2023-04-23T03:09:43.269Z,95.41
2023-04-23T03:10:44.010Z,96.37
2023-04-23T03:11:44.916Z,96.27
2023-04-23T03:12:45.203Z,97.22
2023-04-23T03:13:45.628Z,98.18
2023-04-23T03:14:46.744Z,98.94
2023-04-23T03:15:46.464Z,99.99
2023-04-23T03:16:46.653Z,99.99
2023-04-23T03:17:46.664Z,99.99
2023-04-23T03:18:47.372Z,99.99
2023-04-23T03:19:48.009Z,99.99
2023-04-23T03:20:48.552Z,99.99
2023-04-23T03:21:49.472Z,99.99
2023-04-23T03:22:49.945Z,99.99
2023-04-23T03:23:50.979Z,99.99
2023-04-23T03:24:51.504Z,99.99
2023-04-23T03:25:52.267Z,99.99
2023-04-23T03:26:53.169Z,99.99
2023-04-23T03:27:53.891Z,99.99
2023-04-23T03:28:54.590Z,99.99
2023-04-23T03:29:54.902Z,99.99
2023-04-23T03:30:55.745Z,99.99
2023-04-23T03:31:56.699Z,99.99
2023-04-23T03:32:56.686Z,99.99
2023-04-23T03:33:57.213Z,99.99
2023-04-23T03:34:57.509Z,99.99
2023-04-23T03:35:58.013Z,99.99
2023-04-23T03:36:58.768Z,99.99
2023-04-23T03:37:59.056Z,99.99
2023-04-23T03:38:59.749Z,99.99
2023-04-23T03:40:00.498Z,99.99
2023-04-23T03:41:01.203Z,99.99
2023-04-23T03:42:01.693Z,99.99
2023-04-23T03:43:02.139Z,99.99
2023-04-23T03:44:02.316Z,99.99
2023-04-23T03:45:02.896Z,99.99
2023-04-23T03:46:03.669Z,99.99
2023-04-23T03:47:04.114Z,99.99
2023-04-23T03:48:05.038Z,99.99
2023-04-23T03:49:05.744Z,99.99
2023-04-23T03:50:06.449Z,99.99
2023-04-23T03:51:07.149Z,99.99
2023-04-23T03:52:07.845Z,99.99
2023-04-23T03:53:08.360Z,99.99
2023-04-23T03:54:09.003Z,99.99
2023-04-23T03:55:09.514Z,99.99
2023-04-23T03:56:10.008Z,99.99
2023-04-23T03:57:10.753Z,99.99
2023-04-23T03:58:11.645Z,99.99
2023-04-23T03:59:12.336Z,99.99
2023-04-23T04:00:13.296Z,99.99
2023-04-23T04:01:14.255Z,99.99
2023-04-23T04:02:15.047Z,99.99
2023-04-23T04:03:15.396Z,99.99
2023-04-23T04:04:16.640Z,99.99
2023-04-23T04:05:17.177Z,99.99
2023-04-23T04:06:17.000Z,99.99
2023-04-23T04:07:17.529Z,99.99
2023-04-23T04:08:18.449Z,99.99
2023-04-23T04:09:18.627Z,99.99
2023-04-23T04:10:19.503Z,99.99
2023-04-23T04:11:19.615Z,99.99
2023-04-23T04:12:20.541Z,99.99
2023-04-23T04:13:21.286Z,99.99
2023-04-23T04:14:21.442Z,99.99
2023-04-23T04:15:22.177Z,99.99
2023-04-23T04:16:23.150Z,99.99
2023-04-23T04:17:24.243Z,99.99
2023-04-23T04:18:24.348Z,99.99
2023-04-23T04:19:24.887Z,99.99
2023-04-23T04:20:25.595Z,99.99
2023-04-23T04:21:25.626Z,99.99
2023-04-23T04:22:26.334Z,99.99
2023-04-23T04:23:27.274Z,99.99
2023-04-23T04:24:31.000Z,99.99
2023-04-23T04:25:27.532Z,99.99
2023-04-23T04:26:28.407Z,99.99
2023-04-23T04:27:29.096Z,99.99
2023-04-23T04:28:29.403Z,99.99
2023-04-23T04:29:29.910Z,99.99
2023-04-23T04:30:30.407Z,99.99
2023-04-23T04:31:31.250Z,99.99
2023-04-23T04:32:31.399Z,99.99
2023-04-23T04:33:31.813Z,99.99
2023-04-23T04:34:44.987Z,99.99
2023-04-23T04:35:33.278Z,99.99
2023-04-23T04:36:33.750Z,99.99
2023-04-23T04:37:34.483Z,99.99
2023-04-23T04:38:35.238Z,99.99
2023-04-23T04:39:35.339Z,99.99
2023-04-23T04:40:35.256Z,99.99
2023-04-23T04:41:35.944Z,99.99
2023-04-23T04:42:36.677Z,99.99
2023-04-23T04:43:37.555Z,99.99
2023-04-23T04:44:37.951Z,99.99
2023-04-23T04:45:38.461Z,99.99
2023-04-23T04:46:39.449Z,99.99
2023-04-23T04:47:40.432Z,99.99
2023-04-23T04:48:41.276Z,99.99
2023-04-23T04:49:41.598Z,99.99
2023-04-23T04:50:42.288Z,99.99
2023-04-23T04:51:42.813Z,99.99
2023-04-23T04:52:43.545Z,99.99
2023-04-23T04:53:43.851Z,99.99
2023-04-23T04:54:45.025Z,99.99
2023-04-23T04:55:44.826Z,99.99
2023-04-23T04:56:45.532Z,99.99
2023-04-23T04:57:45.809Z,99.99
2023-04-23T04:58:46.617Z,99.99
2023-04-23T04:59:47.852Z,99.99
2023-04-23T05:00:47.680Z,99.99
2023-04-23T05:01:48.689Z,99.99
2023-04-23T05:02:49.041Z,99.99
2023-04-23T05:03:49.436Z,99.99
2023-04-23T05:04:49.963Z,99.99
2023-04-23T05:05:50.689Z,99.99
2023-04-23T05:06:51.425Z,99.99
2023-04-23T05:07:52.637Z,99.99
2023-04-23T05:08:53.449Z,99.99
2023-04-23T05:09:54.348Z,99.99
2023-04-23T05:10:54.658Z,99.99
2023-04-23T05:11:54.965Z,99.99
2023-04-23T05:12:55.424Z,99.99
2023-04-23T05:13:55.929Z,99.99
2023-04-23T05:14:57.465Z,99.99
2023-04-23T05:15:57.226Z,99.99
2023-04-23T05:16:58.270Z,99.99
2023-04-23T05:17:59.278Z,99.99
2023-04-23T05:18:59.431Z,99.99
2023-04-23T05:19:59.940Z,99.99
2023-04-23T05:21:00.049Z,99.99
2023-04-23T05:22:00.773Z,99.99
2023-04-23T05:23:01.716Z,99.99
2023-04-23T05:24:02.039Z,99.99
2023-04-23T05:25:03.141Z,99.99
2023-04-23T05:26:03.682Z,99.99
2023-04-23T05:27:04.393Z,99.99
2023-04-23T05:28:04.489Z,99.99
2023-04-23T05:29:04.800Z,99.99
2023-04-23T05:30:05.541Z,99.99
2023-04-23T05:31:06.066Z,99.99
2023-04-23T05:32:07.122Z,99.99
2023-04-23T05:33:08.106Z,99.99
2023-04-23T05:34:08.626Z,99.99
2023-04-23T05:35:09.315Z,99.99
2023-04-23T05:36:10.221Z,99.99
2023-04-23T05:37:10.507Z,99.99
2023-04-23T05:38:10.493Z,99.99
2023-04-23T05:39:10.806Z,99.99
2023-04-23T05:40:10.941Z,99.99
2023-04-23T05:41:11.873Z,99.99
2023-04-23T05:42:12.453Z,99.99
2023-04-23T05:43:12.948Z,99.99
2023-04-23T05:44:13.683Z,99.99
2023-04-23T05:45:14.677Z,99.99
2023-04-23T05:46:14.473Z,99.99
2023-04-23T05:47:15.348Z,99.99
2023-04-23T05:48:16.137Z,99.99
2023-04-23T05:49:16.637Z,99.99
2023-04-23T05:50:17.380Z,99.99
2023-04-23T05:51:18.063Z,99.99
2023-04-23T05:52:18.398Z,99.99
2023-04-23T05:53:19.173Z,99.99
2023-04-23T05:54:19.868Z,99.99
2023-04-23T05:55:20.123Z,99.99
2023-04-23T05:56:20.919Z,99.99
2023-04-23T05:57:20.855Z,99.99
2023-04-23T05:58:21.159Z,99.99
2023-04-23T05:59:21.844Z,99.99
2023-04-23T06:00:22.942Z,99.99
2023-04-23T06:01:23.113Z,99.99
2023-04-23T06:02:24.946Z,99.99
2023-04-23T06:03:24.563Z,99.99
2023-04-23T06:04:25.868Z,99.99
2023-04-23T06:05:26.457Z,99.99
2023-04-23T06:06:26.386Z,99.99
2023-04-23T06:07:27.119Z,99.99
2023-04-23T06:08:30.193Z,99.99
2023-04-23T06:09:28.522Z,99.99
2023-04-23T06:10:29.041Z,99.99
2023-04-23T06:11:29.595Z,99.99
2023-04-23T06:12:29.894Z,99.99
2023-04-23T06:13:30.401Z,99.99
2023-04-23T06:14:30.535Z,99.99
2023-04-23T06:15:31.493Z,99.99
2023-04-23T06:16:32.146Z,99.99
2023-04-23T06:17:33.065Z,99.99
2023-04-23T06:18:33.970Z,99.99
2023-04-23T06:19:34.731Z,99.99
2023-04-23T06:20:35.621Z,99.99
2023-04-23T06:21:35.938Z,99.99
2023-04-23T06:22:36.443Z,99.99
2023-04-23T06:23:36.946Z,99.99
2023-04-23T06:24:37.441Z,99.99
2023-04-23T06:25:38.195Z,99.99
2023-04-23T06:26:38.710Z,99.99
2023-04-23T06:27:39.253Z,99.99
2023-04-23T06:28:40.177Z,99.99
2023-04-23T06:29:40.861Z,99.99
2023-04-23T06:30:41.148Z,99.99
2023-04-23T06:31:42.595Z,99.99
2023-04-23T06:32:42.905Z,99.99
2023-04-23T06:33:43.658Z,99.99
2023-04-23T06:35:00.640Z,99.99
2023-04-23T06:36:50.688Z,99.99
2023-04-23T06:37:51.604Z,99.99
2023-04-23T06:38:52.127Z,99.99
2023-04-23T06:39:52.833Z,99.99
2023-04-23T06:40:53.528Z,99.99
2023-04-23T06:41:54.262Z,99.99
2023-04-23T06:42:55.180Z,99.99
2023-04-23T06:43:55.586Z,99.99
2023-04-23T06:44:56.085Z,99.99
2023-04-23T06:45:56.844Z,99.99
2023-04-23T06:46:57.622Z,99.99
2023-04-23T06:47:57.940Z,99.99
2023-04-23T06:48:58.440Z,99.99
2023-04-23T06:49:58.713Z,99.99
2023-04-23T06:50:59.219Z,99.99
2023-04-23T06:52:02.921Z,99.99
2023-04-23T06:53:00.624Z,99.99
2023-04-23T06:54:01.513Z,99.99
2023-04-23T06:55:01.840Z,99.99
2023-04-23T06:56:02.878Z,99.99
2023-04-23T06:57:03.789Z,99.99
2023-04-23T06:58:04.709Z,99.99
2023-04-23T06:59:05.424Z,99.99
2023-04-23T07:00:06.151Z,99.99
2023-04-23T07:01:06.965Z,99.99
2023-04-23T07:02:07.708Z,99.99
2023-04-23T07:03:08.992Z,99.99
2023-04-23T07:04:09.496Z,99.99
2023-04-23T07:05:10.467Z,99.99
2023-04-23T07:06:11.401Z,99.99
2023-04-23T07:07:11.982Z,99.99
2023-04-23T07:08:12.794Z,99.99
2023-04-23T07:09:13.530Z,99.99
2023-04-23T07:10:16.258Z,99.99
2023-04-23T07:11:14.625Z,99.99
2023-04-23T07:12:15.345Z,99.99
2023-04-23T07:13:15.848Z,99.99
2023-04-23T07:14:16.560Z,99.99
2023-04-23T07:15:17.350Z,99.99
2023-04-23T07:16:18.111Z,99.99
2023-04-23T07:17:17.809Z,99.99
2023-04-23T07:18:17.974Z,99.99
2023-04-23T07:19:18.879Z,99.99
2023-04-23T07:20:19.189Z,99.99
2023-04-23T07:21:19.900Z,99.99
2023-04-23T07:22:20.399Z,99.99
2023-04-23T07:23:20.936Z,99.99
2023-04-23T07:24:21.451Z,99.99
2023-04-23T07:25:22.145Z,99.99
2023-04-23T07:26:22.645Z,99.99
2023-04-23T07:27:23.838Z,99.99
2023-04-23T07:28:24.318Z,99.99
2023-04-23T07:29:24.810Z,99.99
2023-04-23T07:30:25.272Z,99.99
2023-04-23T07:31:26.351Z,99.99
2023-04-23T07:32:26.334Z,99.99
2023-04-23T07:33:27.182Z,99.99
2023-04-23T07:34:28.335Z,99.99
2023-04-23T07:35:28.666Z,99.99
2023-04-23T07:36:28.954Z,99.99
2023-04-23T07:37:30.137Z,99.99
2023-04-23T07:38:30.690Z,99.99
2023-04-23T07:39:31.426Z,99.99
2023-04-23T07:40:31.914Z,99.99
2023-04-23T07:41:32.857Z,99.99
2023-04-23T07:42:33.653Z,99.99
2023-04-23T07:43:34.660Z,99.99
2023-04-23T07:44:35.261Z,99.99
2023-04-23T07:45:35.663Z,99.99
2023-04-23T07:46:36.800Z,99.99
2023-04-23T07:47:37.546Z,99.99
2023-04-23T07:48:38.168Z,99.99
2023-04-23T07:49:38.891Z,99.99
2023-04-23T07:50:39.780Z,99.99
2023-04-23T07:51:40.535Z,99.99
2023-04-23T07:52:41.043Z,99.99
2023-04-23T07:53:42.086Z,99.99
2023-04-23T07:54:43.059Z,99.99
2023-04-23T07:55:43.824Z,99.99
2023-04-23T07:56:44.668Z,99.99
2023-04-23T07:57:44.596Z,99.99
2023-04-23T07:58:45.106Z,99.99
2023-04-23T07:59:46.102Z,99.99
2023-04-23T08:00:46.405Z,99.99
2023-04-23T08:01:47.114Z,99.99
2023-04-23T08:02:47.815Z,99.99
2023-04-23T08:03:48.703Z,99.99
2023-04-23T08:04:49.582Z,99.99
2023-04-23T08:05:50.322Z,99.99
2023-04-23T08:06:51.113Z,99.99
2023-04-23T08:07:51.800Z,99.99
2023-04-23T08:08:52.341Z,99.99
2023-04-23T08:09:53.846Z,99.99
2023-04-23T08:10:53.651Z,99.99
2023-04-23T08:11:53.660Z,99.99
2023-04-23T08:12:54.423Z,99.99
2023-04-23T08:13:55.127Z,99.99
2023-04-23T08:14:55.647Z,99.99
2023-04-23T08:15:56.507Z,99.99
2023-04-23T08:16:57.235Z,99.99
2023-04-23T08:17:58.147Z,99.99
2023-04-23T08:19:10.039Z,99.99
2023-04-23T08:19:58.354Z,99.99
2023-04-23T08:20:58.633Z,99.99
2023-04-23T08:21:59.392Z,99.99
2023-04-23T08:23:00.122Z,99.99
2023-04-23T08:24:00.462Z,99.99
2023-04-23T08:25:01.407Z,99.99
2023-04-23T08:26:02.116Z,99.99
2023-04-23T08:27:02.324Z,99.99
2023-04-23T08:28:03.455Z,99.99
2023-04-23T08:29:04.237Z,99.99
2023-04-23T08:30:04.484Z,99.99
2023-04-23T08:31:12.136Z,99.99
2023-04-23T08:32:05.578Z,99.99
2023-04-23T08:33:06.125Z,99.99
2023-04-23T08:34:06.236Z,99.99
2023-04-23T08:35:06.742Z,99.99
2023-04-23T08:36:07.498Z,99.99
2023-04-23T08:37:11.828Z,99.99
2023-04-23T08:38:08.731Z,99.99
2023-04-23T08:39:09.338Z,99.99
2023-04-23T08:40:10.092Z,99.99
2023-04-23T08:41:11.005Z,99.99
2023-04-23T08:42:11.967Z,99.99
2023-04-23T08:43:12.398Z,99.99
2023-04-23T08:44:12.887Z,99.99
2023-04-23T08:45:13.477Z,99.99
2023-04-23T08:46:14.054Z,99.99
2023-04-23T08:47:14.650Z,99.99
2023-04-23T08:48:15.233Z,99.99
2023-04-23T08:49:15.758Z,99.99
2023-04-23T08:50:16.476Z,99.99
2023-04-23T08:51:17.222Z,99.99
2023-04-23T08:52:17.714Z,99.99
2023-04-23T08:53:18.412Z,99.99
2023-04-23T08:54:19.348Z,99.99
2023-04-23T08:55:20.088Z,99.99
2023-04-23T08:56:20.785Z,99.99
2023-04-23T08:57:21.271Z,99.99
2023-04-23T08:58:22.233Z,99.99
2023-04-23T08:59:22.976Z,99.99
2023-04-23T09:00:23.760Z,99.99
2023-04-23T09:01:24.681Z,99.99
2023-04-23T09:02:25.891Z,99.99
2023-04-23T09:03:26.921Z,99.99
2023-04-23T09:04:27.366Z,99.99
2023-04-23T09:05:27.661Z,99.99
2023-04-23T09:06:28.153Z,99.99
2023-04-23T09:07:29.165Z,99.99
2023-04-23T09:08:29.286Z,99.99
2023-04-23T09:09:30.143Z,99.99
2023-04-23T09:10:30.478Z,99.99
2023-04-23T09:11:31.187Z,99.99
2023-04-23T09:12:31.896Z,99.99
2023-04-23T09:13:32.415Z,99.99
2023-04-23T09:14:32.904Z,99.99
2023-04-23T09:15:33.813Z,99.99
2023-04-23T09:16:34.997Z,99.99
2023-04-23T09:17:35.371Z,99.99
2023-04-23T09:18:35.553Z,99.99
2023-04-23T09:19:36.101Z,99.99
2023-04-23T09:20:36.780Z,99.99
2023-04-23T09:21:37.521Z,99.99
2023-04-23T09:22:38.620Z,99.99
2023-04-23T09:23:39.014Z,99.99
2023-04-23T09:24:39.967Z,99.99
2023-04-23T09:25:40.238Z,99.99
2023-04-23T09:26:41.135Z,99.99
2023-04-23T09:27:41.641Z,99.99
2023-04-23T09:28:42.337Z,99.99
2023-04-23T09:29:43.408Z,99.99
2023-04-23T09:30:43.244Z,99.99
2023-04-23T09:31:44.178Z,99.99
2023-04-23T09:32:44.363Z,99.99
2023-04-23T09:33:44.587Z,99.99
2023-04-23T09:34:45.339Z,99.99
2023-04-23T09:35:46.353Z,99.99
2023-04-23T09:36:46.961Z,99.77
2023-04-23T09:37:48.001Z,99.99
2023-04-23T09:38:49.013Z,99.99
2023-04-23T09:39:50.004Z,99.99
2023-04-23T09:40:50.741Z,97.28
2023-04-23T09:41:51.629Z,96.22
2023-04-23T09:42:51.743Z,96.22
2023-04-23T09:43:52.387Z,96.22
2023-04-23T09:44:53.325Z,93.49
2023-04-23T09:45:53.970Z,92.63
2023-04-23T09:46:54.602Z,93.63
2023-04-23T09:47:55.380Z,95.36
2023-04-23T09:48:56.512Z,95.36
2023-04-23T09:49:56.770Z,92.77
2023-04-23T09:50:57.241Z,90.46
2023-04-23T09:51:57.789Z,90.12
2023-04-23T09:52:58.721Z,89.59
2023-04-23T09:53:59.539Z,86.32
2023-04-23T09:55:00.509Z,85.07
2023-04-23T09:56:01.247Z,84.78
2023-04-23T09:57:02.147Z,85.55
2023-04-23T09:58:02.252Z,85.8
2023-04-23T09:59:03.007Z,86.52
2023-04-23T10:00:18.723Z,86.62
2023-04-23T10:01:04.621Z,86.81
2023-04-23T10:02:05.623Z,87.01
2023-04-23T10:03:05.899Z,88.54
2023-04-23T10:04:06.745Z,90.17
2023-04-23T10:05:31.523Z,88.73
2023-04-23T10:06:40.674Z,85.36
2023-04-23T10:07:26.492Z,84.21
2023-04-23T10:08:27.311Z,83.83
2023-04-23T10:09:27.808Z,84.5
2023-04-23T10:10:28.581Z,85.94
2023-04-23T10:11:28.905Z,85.55
2023-04-23T10:12:50.144Z,86.22
2023-04-23T10:13:30.620Z,84.94
2023-04-23T10:14:31.668Z,86.09
2023-04-23T10:15:32.731Z,87.53
2023-04-23T10:16:48.910Z,87.92
2023-04-23T10:17:34.668Z,86.57
2023-04-23T10:18:35.688Z,86.57
2023-04-23T10:19:35.962Z,85.61
2023-04-23T10:20:36.663Z,85.61
2023-04-23T10:21:54.861Z,86.09
2023-04-23T10:22:36.952Z,84.99
2023-04-23T10:23:37.230Z,86.24
2023-04-23T10:24:38.026Z,85.47
2023-04-23T10:25:38.360Z,84.99
2023-04-23T10:26:39.305Z,84.26
2023-04-23T10:27:57.458Z,84.36
2023-04-23T10:29:45.846Z,84.3
2023-04-23T10:30:46.473Z,81.52
2023-04-23T10:31:47.692Z,82.32
2023-04-23T10:32:48.868Z,85.64
2023-04-23T10:34:03.387Z,84.19
2023-04-23T10:34:50.359Z,82.02
2023-04-23T10:35:54.038Z,79.21
2023-04-23T10:36:51.347Z,75.36
2023-04-23T10:37:51.779Z,74.88
2023-04-23T10:39:03.255Z,75.55
2023-04-23T10:39:53.871Z,75.32
2023-04-23T10:40:54.570Z,76.48
2023-04-23T10:41:55.531Z,75.16
2023-04-23T10:42:56.237Z,75.65
2023-04-23T10:43:56.576Z,75.36
2023-04-23T10:45:13.264Z,74.68
2023-04-23T10:45:57.541Z,74.49
2023-04-23T10:46:58.119Z,75.65
2023-04-23T10:47:58.654Z,76.03
2023-04-23T10:48:59.688Z,74.97
2023-04-23T10:50:00.018Z,74.88
2023-04-23T10:52:27.730Z,75.74
2023-04-23T10:53:26.082Z,76.23
2023-04-23T10:54:27.062Z,76.32
2023-04-23T10:55:27.656Z,75.55
2023-04-23T10:56:28.344Z,74.91
2023-04-23T10:57:29.284Z,74.91
2023-04-23T10:58:29.834Z,74.43
2023-04-23T10:59:30.869Z,73.18
2023-04-23T11:00:31.060Z,74.43
2023-04-23T11:01:31.737Z,78.34
2023-04-23T11:02:32.814Z,79.83
2023-04-23T11:03:33.649Z,78.86
2023-04-23T11:04:34.753Z,74.91
2023-04-23T11:05:34.394Z,74.43
2023-04-23T11:06:35.127Z,73.85
2023-04-23T11:07:36.067Z,74.78
2023-04-23T11:08:36.808Z,75.36
2023-04-23T11:09:37.264Z,78.73
2023-04-23T11:10:37.595Z,79.35
2023-04-23T11:11:38.340Z,76.07
2023-04-23T11:12:38.894Z,73.95
2023-04-23T11:13:39.631Z,73.75
2023-04-23T11:14:40.408Z,74.33
2023-04-23T11:15:41.151Z,74.43
2023-04-23T11:16:42.080Z,74.27
2023-04-23T11:17:42.040Z,75.24
2023-04-23T11:18:42.950Z,74.41
2023-04-23T11:19:43.797Z,74.12
2023-04-23T11:20:44.597Z,74.02
2023-04-23T11:21:45.319Z,74.41
2023-04-23T11:22:45.841Z,71.9
2023-04-23T11:23:46.568Z,73.11
2023-04-23T11:24:48.868Z,72.25
2023-04-23T11:25:47.569Z,73.79
2023-04-23T11:26:48.303Z,73.99
2023-04-23T11:27:49.085Z,74.02
2023-04-23T11:28:49.823Z,71.42
2023-04-23T11:29:51.049Z,74.31
2023-04-23T11:30:50.976Z,73.35
2023-04-23T11:32:06.894Z,70.94
2023-04-23T11:32:52.116Z,70.54
2023-04-23T11:33:52.462Z,70.74
2023-04-23T11:34:53.014Z,70.03
2023-04-23T11:35:54.025Z,70.67
2023-04-23T11:36:54.166Z,71.06
2023-04-23T11:37:54.351Z,72.85
2023-04-23T11:38:55.062Z,74.1
2023-04-23T11:39:55.650Z,73.82
2023-04-23T11:40:56.162Z,73.91
2023-04-23T11:41:56.900Z,73.14
2023-04-23T11:42:57.666Z,73.3
2023-04-23T11:43:58.634Z,74.16
2023-04-23T11:44:59.141Z,75.8
2023-04-23T11:46:00.390Z,74.84
2023-04-23T11:47:03.030Z,74.26
2023-04-23T11:48:01.416Z,73.01
2023-04-23T11:49:01.415Z,73.2
2023-04-23T11:50:02.201Z,74.22
2023-04-23T11:51:02.941Z,74.32
2023-04-23T11:52:03.690Z,75.48
2023-04-23T11:53:04.209Z,76.44
2023-04-23T11:54:05.142Z,75.8
2023-04-23T11:55:05.845Z,76.48
2023-04-23T11:56:06.593Z,75.99
2023-04-23T11:57:07.522Z,74.26
2023-04-23T11:58:08.266Z,74.93
2023-04-23T11:59:09.005Z,74.74
2023-04-23T12:00:09.528Z,73.58
2023-04-23T12:01:10.472Z,72.24
2023-04-23T12:02:10.823Z,72.81
2023-04-23T12:03:11.850Z,76.86
2023-04-23T12:04:12.680Z,76.23
2023-04-23T12:05:13.013Z,76.71
2023-04-23T12:06:13.847Z,75.71
2023-04-23T12:07:28.828Z,74.45
2023-04-23T12:08:15.370Z,74.36
2023-04-23T12:09:15.872Z,74.07
2023-04-23T12:10:16.655Z,74.36
2023-04-23T12:11:17.409Z,73.97
2023-04-23T12:12:17.975Z,75.51
2023-04-23T12:13:18.533Z,73.14
2023-04-23T12:14:19.327Z,71.76
2023-04-23T12:15:19.975Z,72.81
2023-04-23T12:16:20.801Z,73.84
2023-04-23T12:17:21.767Z,74.76
2023-04-23T12:18:22.644Z,76.11
2023-04-23T12:19:23.362Z,76.78
2023-04-23T12:20:24.227Z,77.65
2023-04-23T12:21:26.289Z,75.09
2023-04-23T12:22:26.095Z,76.15
2023-04-23T12:23:26.655Z,75.61
2023-04-23T12:24:27.560Z,73.2
2023-04-23T12:25:28.300Z,74.2
2023-04-23T12:26:29.042Z,72.08
2023-04-23T12:27:29.161Z,72.37
2023-04-23T12:28:29.922Z,73.43
2023-04-23T12:29:30.026Z,74.78
2023-04-23T12:30:31.194Z,76.23
2023-04-23T12:31:31.856Z,77
2023-04-23T12:32:32.282Z,75.55
2023-04-23T12:33:33.045Z,76.84
2023-04-23T12:34:33.609Z,76.59
2023-04-23T12:35:33.842Z,73.79
2023-04-23T12:36:34.578Z,73.69
2023-04-23T12:37:35.496Z,72.15
2023-04-23T12:38:35.984Z,71.38
2023-04-23T12:39:36.300Z,70.61
2023-04-23T12:40:37.125Z,70.67
2023-04-23T12:41:38.964Z,70.38
2023-04-23T12:42:38.557Z,72.08
2023-04-23T12:43:39.498Z,74.62
2023-04-23T12:44:40.046Z,74.4
2023-04-23T12:45:40.999Z,76.75
2023-04-23T12:46:41.816Z,75.88
2023-04-23T12:47:42.339Z,76.84
2023-04-23T12:48:43.064Z,74.24
2023-04-23T12:49:44.332Z,71.06
2023-04-23T12:50:44.168Z,71.34
2023-04-23T12:51:45.054Z,71.12
2023-04-23T12:52:45.984Z,70.73
2023-04-23T12:53:46.516Z,71.89
2023-04-23T12:54:47.240Z,73.53
2023-04-23T12:55:47.974Z,74.2
2023-04-23T12:56:48.892Z,74.2
2023-04-23T12:57:49.431Z,74.78
2023-04-23T12:58:50.164Z,74.78
2023-04-23T12:59:50.775Z,74.78
2023-04-23T13:01:51.585Z,76.61
2023-04-23T13:02:52.001Z,73.05
2023-04-23T13:03:52.769Z,74.07
2023-04-23T13:04:53.165Z,74.16
2023-04-23T13:05:53.975Z,73.94
2023-04-23T13:06:54.294Z,74.32
2023-04-23T13:07:55.076Z,75.96
2023-04-23T13:08:55.570Z,77.59